ENBOENEV

Guest
Details From ENBO - Bodo
To ENEV - Evenes
Flight Number -
Tags Generated
Created
Modified
Stats Distance 92 nm / 169 km
Max Altitude 0 ft / 0 m
Waypoints 2
Social Downloads 4
Likes 0
Share VATSIM

Download

Looking for another format? Having issues loading an existing format? Contact us
Advertisement - Login to hide

Notes

Generated

Route

ENBO ENEV

ID Type Via Altitude Latitude Longitude Leg Dist Tot Dist Heading (true) Name
O ENBO APT - 0 ft / 0 m 67.26529˚ 14.31831˚ - 0 nm - -
O ENEV APT - 0 ft / 0 m 68.50391˚ 16.67667˚ 91 nm 91 nm 35° / 37° -

Altitude Profile

Advertisement - Login to hide

ENBO

Details ICAO ENBO (BOO)
Name BODO
Region Norway
Timezone Europe/Oslo (UTC+1.0)
Stats Elevation 42 ft / 13 m (AMSL)
Location 67.268487° 14.356773°
Runways 1
Magnetic Variation 5.704° E

METAR

ENBO 151720Z 08016KT 9999 FEW020 SCT035 BKN050 M02/M06 Q0994 NOSIG

Decode

TAF

TAF TAF ENBO 151100Z 1512/1612 09012KT 9999 SCT030 BKN050 TEMPO 1512/1612 FEW015CB

Decode

Departure Runways

ID Width Length Bearing (true) Bearing (mag) Surface Threshold Offset Overrun Length
07 148 ft / 45 m 11,096 ft / 3,382 m 77.83° 72.13° Concrete 1,969 ft / 600 m 984 ft / 300 m
25 148 ft / 45 m 11,096 ft / 3,382 m 257.90° 252.20° Concrete 0 ft / 0 m 486 ft / 148 m

ENEV

Details ICAO ENEV (EVE)
Name EVENES
Region Norway
Timezone Europe/Oslo (UTC+1.0)
Stats Elevation 84 ft / 26 m (AMSL)
Location 68.491300° 16.678109°
Runways 1
Magnetic Variation 7.226° E

METAR

ENEV 151650Z 19003KT 9999 SCT033 BKN070 M06/M08 Q0994 RMK WIND 1400FT 14010KT

Decode

TAF

Not found

Destination Runways

ID Width Length Bearing (true) Bearing (mag) Surface Threshold Offset Overrun Length
17 148 ft / 45 m 9,208 ft / 2,807 m 177.60° 170.37° Asphalt 302 ft / 92 m 0 ft / 0 m
35 148 ft / 45 m 9,208 ft / 2,807 m 357.60° 350.37° Asphalt 214 ft / 65 m 925 ft / 282 m

Approach Navaids

Runway Type Ident Frequency Range Bearing (true) Bearing (mag) Slope Elevation
17 Localiser EV 108.90 MHz 18 nm / 33 km 177.60° 170.37° - 84 ft / 26 m (AMSL)
17 Glidescope EV 108.90 MHz 10 nm / 19 km 177.60° 170.37° 3.80° 84 ft / 26 m (AMSL)

Popular Alternatives